Time;durP1;ratioP1;P1;durP2;ratioP2;P2;SDS_P1;SDS_P2;PMS_P1;PMS_P2;Temp;Humidity;BMP_temperature;BMP_pressure;BME280_temperature;BME280_humidity;BME280_pressure;Samples;Min_cycle;Max_cycle;Signal;HPM_P1;HPM_P2
2022/06/19 00:00:43;;;;;;;13.82;3.17;;;;;;;21.84;62.46;96276.44;5001820;28;20045;-68
2022/06/19 00:03:19;;;;;;;12.45;2.90;;;;;;;21.74;64.26;96269.22;4995585;28;20120;-68
2022/06/19 00:05:44;;;;;;;15.77;3.25;;;;;;;21.72;64.76;96258.53;5001242;28;20046;-68
2022/06/19 00:08:10;;;;;;;18.58;2.97;;;;;;;21.65;65.86;96263.56;4996119;28;20064;-66
2022/06/19 00:10:35;;;;;;;20.92;2.92;;;;;;;21.33;68.45;96251.47;5001892;28;20069;-68
2022/06/19 00:13:01;;;;;;;18.40;2.80;;;;;;;21.28;69.09;96255.59;4992254;28;20407;-68
2022/06/19 00:15:26;;;;;;;22.40;3.28;;;;;;;21.25;70.39;96242.59;4995918;28;20041;-65
2022/06/19 00:17:51;;;;;;;17.92;3.10;;;;;;;21.34;69.63;96248.25;5001512;28;20615;-67
2022/06/19 00:20:17;;;;;;;18.90;2.78;;;;;;;21.39;69.74;96242.09;4996265;28;20042;-68
2022/06/19 00:22:42;;;;;;;19.30;3.42;;;;;;;21.46;69.49;96243.88;5001517;28;20046;-67
2022/06/19 00:25:08;;;;;;;14.13;3.13;;;;;;;21.49;69.99;96245.78;4998827;28;20491;-69
2022/06/19 00:27:39;;;;;;;15.15;3.55;;;;;;;21.48;70.19;96241.44;4999840;28;20161;-67
2022/06/19 00:30:10;;;;;;;13.27;3.38;;;;;;;21.43;71.06;96238.41;4997808;28;20034;-66
2022/06/19 00:32:36;;;;;;;23.27;4.10;;;;;;;21.28;71.32;96233.31;5002319;28;20042;-67
2022/06/19 00:35:01;;;;;;;17.10;3.47;;;;;;;21.00;72.48;96235.03;5002370;28;20046;-65
2022/06/19 00:37:29;;;;;;;17.08;3.28;;;;;;;20.73;75.73;96232.72;4997056;28;20399;-67
2022/06/19 00:39:55;;;;;;;26.65;3.40;;;;;;;20.59;76.09;96233.91;5001977;28;20033;-68
2022/06/19 00:42:24;;;;;;;14.18;3.35;;;;;;;20.66;76.24;96230.94;4995803;28;20137;-68
2022/06/19 00:44:52;;;;;;;13.00;3.38;;;;;;;20.61;77.18;96232.25;5001656;28;20442;-68
2022/06/19 00:47:35;;;;;;;18.40;3.03;;;;;;;20.61;76.71;96226.69;4995962;28;20112;-67
2022/06/19 00:50:22;;;;;;;11.50;2.88;;;;;;;20.57;77.41;96228.78;5001596;28;20499;-68
2022/06/19 00:52:48;;;;;;;13.65;2.85;;;;;;;20.64;77.46;96230.59;4995850;28;20045;-68
2022/06/19 00:55:19;;;;;;;18.73;3.15;;;;;;;20.65;77.58;96228.59;5015267;28;20048;-68
2022/06/19 00:57:50;;;;;;;10.50;2.88;;;;;;;20.64;78.08;96233.38;5022054;28;20046;-68
2022/06/19 01:00:26;;;;;;;15.75;3.47;;;;;;;20.56;78.75;96226.44;5016125;28;20045;-67
2022/06/19 01:02:59;;;;;;;11.45;3.28;;;;;;;20.51;79.20;96230.56;5023676;28;20049;-68
2022/06/19 01:05:27;;;;;;;14.45;3.30;;;;;;;20.60;79.39;96227.91;5016960;28;20042;-68
2022/06/19 01:07:56;;;;;;;16.58;3.25;;;;;;;20.53;79.33;96219.78;5025702;28;20494;-66
2022/06/19 01:10:22;;;;;;;13.90;3.40;;;;;;;20.50;79.70;96217.88;5016925;28;20110;-68
2022/06/19 01:12:48;;;;;;;17.88;3.42;;;;;;;20.50;79.60;96212.31;5008284;28;20038;-67
2022/06/19 01:15:19;;;;;;;15.25;3.63;;;;;;;20.43;80.67;96212.53;5007372;28;20052;-64
2022/06/19 01:17:47;;;;;;;10.05;2.65;;;;;;;20.42;80.69;96206.19;5014399;28;20139;-67
2022/06/19 01:20:15;;;;;;;16.40;2.92;;;;;;;20.47;80.15;96202.06;4998009;28;20042;-66
2022/06/19 01:23:22;;;;;;;18.48;4.13;;;;;;;20.46;80.36;96210.88;5001390;28;20048;-68
2022/06/19 01:25:50;;;;;;;21.95;4.15;;;;;;;20.41;80.16;96209.41;4983714;28;20430;-66
2022/06/19 01:31:09;;;;;;;16.45;2.95;;;;;;;20.11;81.88;96200.34;4995577;28;20038;-65
2022/06/19 01:33:45;;;;;;;15.27;3.70;;;;;;;20.06;82.74;96212.03;5000475;28;20148;-69
2022/06/19 01:36:13;;;;;;;19.25;3.15;;;;;;;20.01;83.25;96202.25;4994740;28;20124;-64
2022/06/19 01:38:39;;;;;;;16.15;3.08;;;;;;;19.96;83.72;96208.34;4982711;28;20052;-69
2022/06/19 01:41:12;;;;;;;16.73;3.65;;;;;;;19.93;84.87;96200.88;4996555;28;20568;-66
2022/06/19 01:43:38;;;;;;;12.35;3.15;;;;;;;19.85;84.84;96202.31;5014975;28;20038;-66
2022/06/19 01:46:04;;;;;;;13.27;3.53;;;;;;;19.86;85.31;96199.09;4995761;28;20050;-63
2022/06/19 01:48:32;;;;;;;11.52;3.47;;;;;;;19.85;85.08;96196.75;5000705;28;20038;-69
2022/06/19 01:51:00;;;;;;;12.85;3.67;;;;;;;19.88;84.63;96195.09;4999843;28;20038;-67
2022/06/19 01:53:46;;;;;;;15.18;3.72;;;;;;;19.86;85.10;96201.88;4988561;28;20056;-68
2022/06/19 01:56:12;;;;;;;18.65;3.30;;;;;;;19.84;85.05;96203.53;4992339;28;20096;-66
2022/06/19 01:58:41;;;;;;;17.23;3.47;;;;;;;19.81;85.57;96209.97;5000138;28;20045;-68
2022/06/19 02:01:13;;;;;;;15.27;3.70;;;;;;;19.72;86.22;96207.03;4993635;28;20050;-67
2022/06/19 02:03:44;;;;;;;14.52;3.35;;;;;;;19.61;86.46;96202.53;4999559;28;20049;-68
2022/06/19 02:06:14;;;;;;;20.73;4.25;;;;;;;19.55;88.02;96197.94;4992649;28;20128;-68
2022/06/19 02:08:40;;;;;;;;;;;;;;;19.16;89.82;96199.75;5001853;28;20072;-66
2022/06/19 02:11:08;;;;;;;9.75;3.17;;;;;;;18.70;93.46;96189.34;4995459;28;19956;-67
2022/06/19 02:13:34;;;;;;;18.50;3.95;;;;;;;18.74;94.18;96197.56;5000313;28;20041;-69
2022/06/19 02:16:04;;;;;;;13.50;3.35;;;;;;;18.86;93.90;96202.47;4988390;28;20081;-69
2022/06/19 02:18:34;;;;;;;19.38;3.28;;;;;;;19.00;92.95;96200.56;5000433;28;20590;-64
2022/06/19 02:21:00;;;;;;;17.17;3.10;;;;;;;19.06;92.51;96205.13;5000108;28;20046;-69
2022/06/19 02:23:34;;;;;;;14.60;3.75;;;;;;;19.14;92.67;96196.63;5015012;28;20445;-67
2022/06/19 02:26:00;;;;;;;16.90;3.65;;;;;;;19.19;92.27;96199.66;5030999;28;20041;-68
2022/06/19 02:28:28;;;;;;;15.82;4.05;;;;;;;19.18;92.05;96200.91;5010187;28;20034;-66
2022/06/19 02:30:54;;;;;;;12.15;3.58;;;;;;;19.14;92.50;96199.41;5011228;28;20045;-67
2022/06/19 02:33:24;;;;;;;23.98;3.58;;;;;;;19.15;92.15;96200.97;4986343;28;20054;-66
2022/06/19 02:35:50;;;;;;;11.35;3.13;;;;;;;19.17;91.71;96204.88;5018694;28;20082;-68
2022/06/19 02:38:20;;;;;;;17.77;3.72;;;;;;;19.15;91.27;96204.53;4994208;28;20073;-67
2022/06/19 02:41:03;;;;;;;15.38;3.53;;;;;;;19.14;91.39;96196.63;4999769;28;20042;-68
2022/06/19 02:43:33;;;;;;;14.13;3.33;;;;;;;19.08;91.85;96201.94;5010470;28;20091;-68
2022/06/19 02:45:58;;;;;;;21.52;3.05;;;;;;;19.05;92.26;96198.06;5002302;28;20139;-68
2022/06/19 02:48:30;;;;;;;15.15;4.07;;;;;;;18.96;91.87;96210.97;4990780;28;20042;-68
2022/06/19 02:50:57;;;;;;;15.60;3.70;;;;;;;18.64;93.90;96204.19;5000719;28;20034;-69
2022/06/19 02:53:23;;;;;;;18.63;3.97;;;;;;;18.22;97.70;96207.47;4995415;28;20041;-69
2022/06/19 02:55:49;;;;;;;14.93;4.35;;;;;;;18.00;99.92;96207.13;4999939;28;20042;-68
2022/06/19 02:58:16;;;;;;;20.13;3.97;;;;;;;18.11;100.00;96210.50;4995520;28;20046;-67
2022/06/19 03:00:43;;;;;;;18.00;3.80;;;;;;;18.21;100.00;96207.91;5000160;28;20116;-68
2022/06/19 03:03:35;;;;;;;18.30;4.18;;;;;;;18.27;99.30;96209.72;4992773;28;20125;-67
2022/06/19 03:06:01;;;;;;;12.57;3.65;;;;;;;18.34;99.21;96206.03;5000087;28;20041;-68
2022/06/19 03:08:26;;;;;;;20.00;3.25;;;;;;;18.33;99.41;96210.78;4998585;28;20697;-69
2022/06/19 03:10:52;;;;;;;17.98;4.70;;;;;;;18.30;99.10;96205.34;5003759;28;20041;-68
2022/06/19 03:13:18;;;;;;;19.30;4.18;;;;;;;17.91;100.00;96212.47;4999957;28;20053;-68
2022/06/19 03:15:44;;;;;;;14.80;4.15;;;;;;;17.88;100.00;96211.34;5002618;28;20042;-68
2022/06/19 03:18:10;;;;;;;29.42;3.75;;;;;;;18.00;100.00;96223.75;4994879;28;20046;-67
2022/06/19 03:20:35;;;;;;;15.60;3.65;;;;;;;18.09;100.00;96214.88;5003066;28;20034;-67
2022/06/19 03:23:00;;;;;;;18.35;4.03;;;;;;;18.27;100.00;96215.28;5008039;28;20380;-68
2022/06/19 03:25:26;;;;;;;12.52;3.67;;;;;;;18.42;99.38;96220.50;4997165;28;20042;-68
2022/06/19 03:27:52;;;;;;;12.80;3.38;;;;;;;17.98;100.00;96217.88;5001527;28;20046;-68
2022/06/19 03:30:20;;;;;;;18.27;4.78;;;;;;;17.57;100.00;96219.84;4998557;28;20041;-68
2022/06/19 03:32:45;;;;;;;15.85;4.57;;;;;;;17.68;100.00;96222.41;5001787;28;20042;-69
2022/06/19 03:35:12;;;;;;;11.38;3.80;;;;;;;17.80;100.00;96215.44;4996390;28;20616;-65
2022/06/19 03:37:38;;;;;;;22.67;4.07;;;;;;;17.63;100.00;96213.78;5002667;28;20410;-63
2022/06/19 03:40:05;;;;;;;20.27;4.05;;;;;;;17.82;100.00;96215.00;4999158;28;20049;-68
2022/06/19 03:42:30;;;;;;;13.50;3.38;;;;;;;18.05;100.00;96214.19;5001437;28;20610;-67
2022/06/19 03:44:56;;;;;;;14.20;3.35;;;;;;;18.10;100.00;96219.22;5002262;28;20137;-66
2022/06/19 03:47:24;;;;;;;17.45;3.90;;;;;;;18.33;100.00;96218.34;4996691;28;20085;-65
2022/06/19 03:49:50;;;;;;;16.75;3.58;;;;;;;18.49;100.00;96225.88;5004084;28;20038;-66
2022/06/19 03:52:15;;;;;;;17.00;3.80;;;;;;;18.68;100.00;96224.28;4998241;28;20065;-67
2022/06/19 03:54:41;;;;;;;17.60;3.78;;;;;;;18.85;99.18;96219.53;5003268;28;20513;-68
2022/06/19 03:57:09;;;;;;;19.40;3.63;;;;;;;19.01;98.80;96233.41;5003700;28;20034;-68
2022/06/19 03:59:34;;;;;;;12.55;3.40;;;;;;;19.19;95.91;96230.19;5002631;28;20095;-65
2022/06/19 04:01:59;;;;;;;17.73;3.53;;;;;;;19.11;95.90;96234.38;5002517;28;20045;-67
2022/06/19 04:04:25;;;;;;;16.98;3.92;;;;;;;18.94;96.41;96222.50;4997679;28;20038;-64
2022/06/19 04:06:51;;;;;;;13.65;4.22;;;;;;;19.04;96.07;96217.91;5014920;28;20354;-66
2022/06/19 04:09:17;;;;;;;20.10;4.75;;;;;;;18.91;95.40;96221.38;4989245;28;20041;-67
2022/06/19 04:11:43;;;;;;;22.38;4.20;;;;;;;18.65;97.88;96228.69;5002662;28;20040;-65
2022/06/19 04:14:13;;;;;;;15.10;3.55;;;;;;;19.03;96.93;96232.97;4999712;28;20041;-64
2022/06/19 04:16:39;;;;;;;14.27;3.58;;;;;;;19.38;95.34;96231.31;5001649;28;20038;-65
2022/06/19 04:19:06;;;;;;;12.68;3.70;;;;;;;18.75;96.13;96229.66;4996187;28;20077;-63
2022/06/19 04:21:35;;;;;;;16.58;4.20;;;;;;;18.15;100.00;96225.03;4998035;28;20038;-64
2022/06/19 04:24:05;;;;;;;;;;;;;;;17.92;100.00;96228.69;5007780;28;20048;-65
2022/06/19 04:26:33;;;;;;;15.90;4.00;;;;;;;18.52;100.00;96231.34;5001843;28;19932;-64
2022/06/19 04:28:59;;;;;;;13.55;3.90;;;;;;;18.90;99.12;96224.56;5001939;28;20391;-64
2022/06/19 04:31:25;;;;;;;17.95;4.22;;;;;;;18.43;100.00;96228.41;4997841;28;20038;-64
2022/06/19 04:33:51;;;;;;;13.13;3.92;;;;;;;18.51;100.00;96224.25;5000496;28;20136;-65
2022/06/19 04:36:19;;;;;;;15.50;4.93;;;;;;;19.00;97.82;96220.00;4996486;28;20037;-66
2022/06/19 04:38:47;;;;;;;21.52;4.25;;;;;;;19.54;94.51;96219.41;5002323;28;20144;-65
2022/06/19 04:41:25;;;;;;;12.68;3.97;;;;;;;19.36;96.49;96216.31;4995193;28;20058;-65
2022/06/19 04:43:51;;;;;;;13.98;3.50;;;;;;;20.03;94.31;96230.38;5002621;28;20100;-65
2022/06/19 04:46:21;;;;;;;17.73;3.60;;;;;;;21.01;86.90;96231.03;4993576;28;20135;-65
2022/06/19 04:48:47;;;;;;;13.77;3.30;;;;;;;22.08;79.76;96236.97;5001679;28;20034;-65
2022/06/19 04:51:13;;;;;;;14.88;4.00;;;;;;;22.93;73.84;96236.94;4997366;28;20096;-65
2022/06/19 04:53:39;;;;;;;12.73;3.45;;;;;;;24.03;68.18;96241.97;5001015;28;20038;-65
2022/06/19 04:56:06;;;;;;;10.73;3.22;;;;;;;25.13;63.29;96240.84;4989068;28;20050;-65
2022/06/19 04:58:32;;;;;;;12.85;3.38;;;;;;;25.80;60.06;96243.56;5005134;28;20069;-65
2022/06/19 05:01:01;;;;;;;21.27;4.68;;;;;;;26.18;57.26;96246.84;5006510;28;20080;-65
2022/06/19 05:03:26;;;;;;;21.88;3.67;;;;;;;25.77;57.22;96238.94;4997411;28;20414;-69
2022/06/19 05:05:53;;;;;;;16.20;3.28;;;;;;;25.58;59.28;96234.72;5001105;28;20038;-65
2022/06/19 05:08:19;;;;;;;14.07;3.05;;;;;;;23.90;65.99;96241.34;4996575;28;20058;-65
2022/06/19 05:10:45;;;;;;;18.70;3.58;;;;;;;24.07;67.10;96245.38;5003020;28;20042;-66
2022/06/19 05:13:15;;;;;;;18.55;3.08;;;;;;;24.34;67.49;96252.16;4996752;28;20411;-65
2022/06/19 05:15:41;;;;;;;12.70;3.10;;;;;;;26.59;59.00;96253.44;5002865;28;20053;-64
2022/06/19 05:18:07;;;;;;;15.02;3.42;;;;;;;28.29;52.16;96236.09;4996483;28;20153;-65
2022/06/19 05:20:32;;;;;;;16.52;3.17;;;;;;;29.49;48.21;96242.94;5001006;28;20054;-63
2022/06/19 05:22:57;;;;;;;16.88;3.25;;;;;;;30.40;45.17;96251.81;5001548;28;20046;-64
2022/06/19 05:25:23;;;;;;;8.82;3.28;;;;;;;30.67;44.19;96261.59;4991922;28;20515;-64
2022/06/19 05:27:48;;;;;;;15.77;3.05;;;;;;;30.37;44.99;96262.06;5007056;28;20045;-64
2022/06/19 05:30:14;;;;;;;14.02;2.60;;;;;;;31.40;42.06;96266.44;5019752;22;20483;-68
2022/06/19 05:32:39;;;;;;;16.08;3.40;;;;;;;32.34;40.23;96260.97;4993331;28;20041;-69
2022/06/19 05:35:05;;;;;;;14.45;3.13;;;;;;;32.47;39.73;96260.38;4979775;28;20046;-68
2022/06/19 05:37:31;;;;;;;15.98;2.92;;;;;;;32.03;41.75;96261.38;4982908;28;20062;-69
2022/06/19 05:39:57;;;;;;;21.25;3.70;;;;;;;33.33;39.08;96264.88;4996846;28;20045;-69
2022/06/19 05:42:23;;;;;;;11.05;2.75;;;;;;;34.22;36.27;96263.66;4977193;28;20046;-69
2022/06/19 05:44:48;;;;;;;24.13;3.75;;;;;;;33.84;36.20;96269.28;4981208;28;20044;-69
2022/06/19 05:47:13;;;;;;;14.98;3.30;;;;;;;31.45;41.07;96274.16;4974137;28;20093;-70
2022/06/19 05:49:39;;;;;;;17.60;3.92;;;;;;;29.47;47.87;96265.25;4986451;28;20049;-69
2022/06/19 05:52:15;;;;;;;19.27;3.58;;;;;;;29.95;47.09;96255.25;4978056;28;20132;-72
2022/06/19 05:54:41;;;;;;;15.38;2.83;;;;;;;30.00;46.92;96257.31;4980823;28;20042;-70
2022/06/19 05:57:08;;;;;;;14.55;3.00;;;;;;;29.92;48.49;96251.38;4977923;28;20134;-71
2022/06/19 05:59:33;;;;;;;11.68;3.10;;;;;;;31.14;43.99;96256.22;4981169;28;20467;-70
2022/06/19 06:01:59;;;;;;;8.20;2.60;;;;;;;33.00;39.54;96256.66;4982144;28;20550;-69
2022/06/19 06:04:24;;;;;;;16.20;3.42;;;;;;;33.63;37.77;96268.97;4975358;28;20128;-69
2022/06/19 06:06:50;;;;;;;18.50;3.38;;;;;;;30.13;44.50;96267.38;4981299;28;20048;-69
2022/06/19 06:09:15;;;;;;;21.23;3.42;;;;;;;31.18;41.37;96267.25;4977418;28;20125;-69
2022/06/19 06:11:40;;;;;;;18.20;3.17;;;;;;;30.14;43.67;96266.09;4983424;28;20490;-69
2022/06/19 06:14:06;;;;;;;14.20;2.95;;;;;;;30.56;43.51;96267.22;4976164;28;20138;-69
2022/06/19 06:16:31;;;;;;;13.45;3.08;;;;;;;32.78;38.20;96264.06;4981894;28;20830;-68
2022/06/19 06:18:57;;;;;;;21.33;4.05;;;;;;;31.59;40.57;96269.53;4982455;28;20042;-69
2022/06/19 06:21:24;;;;;;;16.65;3.17;;;;;;;31.82;37.91;96276.66;4975358;28;20288;-69
2022/06/19 06:23:51;;;;;;;16.38;3.80;;;;;;;32.66;37.50;96265.44;4981758;28;20125;-69
2022/06/19 06:26:19;;;;;;;13.50;3.05;;;;;;;31.30;39.80;96276.50;4977445;28;20097;-71
2022/06/19 06:28:47;;;;;;;16.20;3.30;;;;;;;33.02;36.75;96276.75;4985117;28;20092;-70
2022/06/19 06:31:13;;;;;;;21.90;8.25;;;;;;;32.20;37.96;96268.53;4977147;28;20050;-69
2022/06/19 06:33:39;;;;;;;15.40;3.38;;;;;;;34.19;34.75;96268.31;4982202;28;20510;-68
2022/06/19 06:36:05;;;;;;;12.77;3.28;;;;;;;35.86;31.86;96275.97;4956668;28;20066;-71
2022/06/19 06:38:31;;;;;;;16.73;3.72;;;;;;;36.87;29.98;96275.88;4981956;28;20066;-70
2022/06/19 06:40:57;;;;;;;10.95;2.83;;;;;;;37.46;28.71;96286.13;4978749;28;20042;-69
2022/06/19 06:43:23;;;;;;;10.57;3.10;;;;;;;35.88;30.71;96283.97;4980648;28;20246;-69
2022/06/19 06:45:49;;;;;;;13.68;3.50;;;;;;;35.44;31.70;96274.94;4989397;28;20061;-70
2022/06/19 06:48:15;;;;;;;18.48;3.13;;;;;;;34.63;32.47;96277.53;4980469;28;20145;-70
2022/06/19 06:50:41;;;;;;;20.17;3.17;;;;;;;35.29;32.09;96281.16;4985464;28;20046;-70
2022/06/19 06:53:08;;;;;;;19.38;3.15;;;;;;;36.86;29.38;96282.13;4981532;28;20421;-70
2022/06/19 06:55:38;;;;;;;14.60;3.35;;;;;;;37.80;28.45;96273.81;4985427;28;20046;-71
2022/06/19 06:58:04;;;;;;;15.93;3.22;;;;;;;33.93;33.25;96279.50;4980062;28;20066;-70
2022/06/19 07:00:29;;;;;;;14.82;3.63;;;;;;;32.35;35.90;96273.84;4984816;28;20052;-70
2022/06/19 07:02:55;;;;;;;19.50;3.40;;;;;;;31.51;38.25;96277.00;4986237;28;20043;-69
2022/06/19 07:05:20;;;;;;;14.02;3.28;;;;;;;29.87;42.80;96271.91;4979186;28;20039;-69
2022/06/19 07:07:45;;;;;;;19.80;3.60;;;;;;;32.86;36.76;96269.91;4980598;28;20092;-69
2022/06/19 07:10:11;;;;;;;20.10;3.25;;;;;;;31.32;38.97;96271.88;4972850;28;20046;-70
2022/06/19 07:12:42;;;;;;;25.25;4.05;;;;;;;32.37;37.44;96273.31;4980070;28;20046;-69
2022/06/19 07:15:15;;;;;;;17.02;3.78;;;;;;;32.31;35.80;96269.75;4978840;28;20506;-70
2022/06/19 07:17:41;;;;;;;25.40;3.50;;;;;;;31.75;36.27;96271.53;4986689;28;20058;-70
2022/06/19 07:20:08;;;;;;;20.58;3.03;;;;;;;34.17;34.39;96264.47;4977215;28;20098;-70
2022/06/19 07:22:33;;;;;;;16.95;3.92;;;;;;;36.24;31.42;96264.34;4971493;28;20057;-70
2022/06/19 07:24:59;;;;;;;14.18;3.42;;;;;;;37.20;30.84;96267.06;4967154;28;20039;-70
2022/06/19 07:27:24;;;;;;;12.95;2.92;;;;;;;38.26;29.75;96259.75;4983290;28;20101;-71
2022/06/19 07:29:50;;;;;;;14.73;3.15;;;;;;;38.58;29.13;96258.56;4997655;28;20557;-69
2022/06/19 07:32:16;;;;;;;17.65;3.78;;;;;;;39.08;27.81;96259.03;4980497;28;20038;-70
2022/06/19 07:34:42;;;;;;;22.88;2.95;;;;;;;36.62;30.06;96264.00;5003569;28;20076;-69
2022/06/19 07:37:11;;;;;;;15.10;2.67;;;;;;;36.03;31.57;96257.78;4989073;28;20085;-70
2022/06/19 07:39:37;;;;;;;14.15;3.22;;;;;;;36.69;29.93;96251.16;4998953;28;20073;-69
2022/06/19 07:42:05;;;;;;;20.73;3.53;;;;;;;34.53;33.96;96259.31;5001291;28;20069;-69
2022/06/19 07:44:30;;;;;;;20.73;3.47;;;;;;;35.92;31.56;96248.13;4997739;28;20038;-69
2022/06/19 07:52:31;;;;;;;13.30;3.20;;;;;;;38.06;29.61;96249.91;4983746;28;20046;-69
2022/06/19 07:54:57;;;;;;;12.68;2.92;;;;;;;37.94;29.81;96243.78;4984515;28;20057;-69
2022/06/19 07:57:22;;;;;;;16.55;3.30;;;;;;;35.12;31.14;96244.47;4972643;28;20078;-67
2022/06/19 07:59:48;;;;;;;20.42;3.75;;;;;;;32.84;35.95;96236.41;4975900;28;20093;-66
2022/06/19 08:02:13;;;;;;;18.92;3.38;;;;;;;32.56;38.52;96234.56;4958870;28;20491;-69
2022/06/19 08:04:38;;;;;;;15.90;3.90;;;;;;;34.85;35.86;96236.59;4977071;28;20046;-68
2022/06/19 08:07:04;;;;;;;13.68;3.22;;;;;;;35.71;33.43;96230.19;4979718;28;20049;-68
2022/06/19 08:09:29;;;;;;;18.83;3.60;;;;;;;36.07;31.97;96235.38;4984287;28;20157;-67
2022/06/19 08:11:55;;;;;;;15.75;3.53;;;;;;;36.31;31.77;96232.31;4983565;28;20054;-67
2022/06/19 08:14:20;;;;;;;13.55;3.17;;;;;;;36.63;28.18;96219.91;4977961;28;20471;-66
2022/06/19 08:16:46;;;;;;;19.20;3.70;;;;;;;34.79;31.03;96223.78;4999499;28;20100;-67
2022/06/19 08:19:11;;;;;;;21.67;5.43;;;;;;;36.08;30.13;96214.91;4981438;28;20057;-68
2022/06/19 08:21:37;;;;;;;17.08;3.35;;;;;;;36.49;30.69;96221.28;4984782;28;20035;-66
2022/06/19 08:24:02;;;;;;;22.63;4.03;;;;;;;34.95;33.61;96216.28;4982918;28;20050;-69
2022/06/19 08:26:28;;;;;;;16.88;3.50;;;;;;;35.27;31.59;96221.19;4978470;28;20077;-68
2022/06/19 08:29:02;;;;;;;15.63;3.30;;;;;;;34.91;34.82;96213.75;4983801;28;20090;-67
2022/06/19 08:31:29;;;;;;;20.58;2.92;;;;;;;34.69;36.35;96214.13;4980308;28;20042;-67
2022/06/19 08:33:55;;;;;;;20.17;3.65;;;;;;;34.21;36.48;96211.72;4969364;28;20499;-68
2022/06/19 08:36:21;;;;;;;17.35;3.38;;;;;;;34.74;35.29;96202.66;4957603;28;20043;-67
2022/06/19 08:38:51;;;;;;;13.77;4.00;;;;;;;35.30;33.76;96200.16;4980350;28;20104;-67
2022/06/19 08:41:44;;;;;;;20.40;3.90;;;;;;;35.68;30.00;96208.47;4978587;28;20038;-68
2022/06/19 08:44:22;;;;;;;20.08;3.75;;;;;;;35.13;32.25;96204.06;4976549;28;20061;-67
2022/06/19 08:47:03;;;;;;;18.17;3.83;;;;;;;34.52;35.92;96209.47;4978381;28;20049;-68
2022/06/19 08:50:03;;;;;;;15.48;3.80;;;;;;;33.99;37.84;96203.50;4981331;28;20042;-67
2022/06/19 08:52:48;;;;;;;19.77;4.15;;;;;;;34.51;36.76;96202.22;4988759;28;20034;-68
2022/06/19 08:55:19;;;;;;;20.30;4.40;;;;;;;33.92;37.82;96196.34;4967130;28;20046;-67
2022/06/19 08:57:56;;;;;;;18.30;4.07;;;;;;;33.00;40.08;96192.19;4984394;28;20052;-68
2022/06/19 09:00:31;;;;;;;20.55;4.03;;;;;;;33.62;38.61;96180.19;4980290;28;20128;-68
2022/06/19 09:03:15;;;;;;;21.35;3.53;;;;;;;33.80;38.54;96183.59;4982695;28;20057;-68
2022/06/19 09:06:07;;;;;;;17.30;4.05;;;;;;;33.26;39.16;96188.88;4983425;28;20043;-67
2022/06/19 09:08:41;;;;;;;18.17;4.13;;;;;;;33.62;40.59;96190.75;4981913;28;20103;-67
2022/06/19 09:11:26;;;;;;;22.27;4.40;;;;;;;33.72;39.52;96189.88;4985314;28;20105;-69
2022/06/19 09:13:51;;;;;;;22.33;4.00;;;;;;;34.02;37.30;96188.22;4989033;28;20046;-67
2022/06/19 09:16:36;;;;;;;16.38;3.85;;;;;;;33.39;39.25;96185.34;4979935;28;20100;-68
2022/06/19 09:19:16;;;;;;;16.02;3.45;;;;;;;33.64;38.59;96188.94;4982043;28;20045;-68
2022/06/19 09:21:56;;;;;;;23.38;3.88;;;;;;;33.93;38.45;96185.75;4981290;28;20537;-67
2022/06/19 09:24:29;;;;;;;25.17;5.00;;;;;;;33.98;36.77;96193.41;4977012;28;20493;-67
2022/06/19 09:26:57;;;;;;;11.93;3.67;;;;;;;34.08;36.11;96188.91;4981411;28;20066;-68
2022/06/19 09:30:07;;;;;;;23.80;4.70;;;;;;;33.87;35.81;96182.97;4975538;28;20350;-67
2022/06/19 09:33:00;;;;;;;19.40;3.67;;;;;;;34.43;32.66;96178.56;4969772;28;20054;-67
2022/06/19 09:35:39;;;;;;;19.75;4.05;;;;;;;34.08;32.13;96183.22;4977517;28;20049;-70
2022/06/19 09:38:16;;;;;;;21.45;4.05;;;;;;;34.76;32.46;96176.53;4976516;28;20046;-69
2022/06/19 09:40:46;;;;;;;18.75;4.30;;;;;;;35.38;32.35;96178.25;4983697;28;20050;-67
2022/06/19 09:43:34;;;;;;;14.23;4.22;;;;;;;35.53;33.28;96174.84;4971633;28;20561;-68
2022/06/19 09:46:06;;;;;;;20.67;3.65;;;;;;;35.01;33.37;96179.97;4961397;28;20049;-68
2022/06/19 09:48:54;;;;;;;18.60;4.10;;;;;;;35.20;34.60;96168.50;4983123;28;20069;-67
2022/06/19 09:51:45;;;;;;;16.85;4.60;;;;;;;35.66;34.10;96166.31;4978870;28;20040;-67
2022/06/19 09:54:18;;;;;;;16.13;4.50;;;;;;;35.72;33.32;96166.97;4975255;28;20043;-66
2022/06/19 09:56:51;;;;;;;25.83;4.63;;;;;;;35.56;34.83;96165.22;4977706;28;20059;-70
2022/06/19 09:59:26;;;;;;;19.90;4.63;;;;;;;35.58;34.61;96162.59;4958287;28;20051;-67
2022/06/19 10:02:03;;;;;;;18.73;4.60;;;;;;;36.15;33.18;96150.75;4965882;28;20129;-67
2022/06/19 10:04:44;;;;;;;15.82;4.85;;;;;;;36.28;32.46;96147.13;4983210;28;20050;-66
2022/06/19 10:07:25;;;;;;;21.50;4.15;;;;;;;36.09;33.84;96147.28;4982646;28;20053;-67
2022/06/19 10:09:58;;;;;;;15.30;4.75;;;;;;;35.88;35.12;96142.28;4979021;28;20038;-68
2022/06/19 10:12:35;;;;;;;16.30;5.03;;;;;;;35.99;34.53;96144.88;4964401;28;20152;-68
2022/06/19 10:15:12;;;;;;;18.88;4.53;;;;;;;35.89;36.18;96131.66;4985163;28;20042;-68
2022/06/19 10:17:49;;;;;;;17.58;5.05;;;;;;;36.01;34.22;96132.16;4987811;28;20042;-68
2022/06/19 10:20:21;;;;;;;17.73;4.90;;;;;;;35.92;33.89;96139.84;4984167;28;20046;-68
2022/06/19 10:23:11;;;;;;;18.05;4.80;;;;;;;36.35;34.72;96138.63;4984210;28;20038;-68
2022/06/19 10:25:58;;;;;;;14.50;4.32;;;;;;;36.38;35.72;96128.22;4995828;28;20710;-67
2022/06/19 10:28:55;;;;;;;18.17;4.80;;;;;;;35.89;36.71;96131.66;4997908;28;20585;-68
2022/06/19 10:31:52;;;;;;;16.85;4.07;;;;;;;34.88;37.14;96123.03;4998411;28;20066;-68
2022/06/19 10:34:35;;;;;;;21.52;4.60;;;;;;;34.77;37.56;96136.19;4978455;28;20038;-68
2022/06/19 10:37:18;;;;;;;16.52;4.40;;;;;;;34.07;39.90;96122.78;4995102;28;20054;-69
2022/06/19 10:40:02;;;;;;;19.30;4.97;;;;;;;33.63;40.29;96127.00;5010074;28;20045;-69
2022/06/19 10:42:39;;;;;;;15.05;4.97;;;;;;;33.82;41.31;96124.97;5007166;28;20438;-69
2022/06/19 10:45:23;;;;;;;15.90;4.65;;;;;;;34.18;40.95;96132.50;4991728;28;20041;-69
2022/06/19 10:47:57;;;;;;;20.63;5.07;;;;;;;34.57;38.92;96126.13;4985598;28;20619;-68
2022/06/19 10:50:50;;;;;;;16.25;4.93;;;;;;;34.83;38.50;96119.75;4983200;28;20053;-68
2022/06/19 10:53:27;;;;;;;17.88;4.38;;;;;;;34.88;39.03;96126.69;4980342;28;20053;-67
2022/06/19 10:56:11;;;;;;;20.17;4.80;;;;;;;35.16;38.65;96120.44;4985724;28;20038;-66
2022/06/19 10:58:40;;;;;;;21.42;5.18;;;;;;;34.88;39.52;96109.59;4985787;28;20051;-67
2022/06/19 11:01:09;;;;;;;21.42;5.38;;;;;;;34.78;40.30;96109.25;4983256;28;20587;-68
2022/06/19 11:06:54;;;;;;;20.42;4.63;;;;;;;34.30;42.51;96105.41;4982764;28;20058;-67
2022/06/19 11:09:32;;;;;;;17.95;5.00;;;;;;;35.01;39.61;96100.31;4981579;28;20125;-68
2022/06/19 11:12:05;;;;;;;12.18;4.82;;;;;;;35.42;39.81;96107.53;4984309;28;20200;-67
2022/06/19 11:14:34;;;;;;;21.13;5.18;;;;;;;35.74;37.96;96095.22;4978265;28;20619;-67
2022/06/19 11:17:05;;;;;;;;;;;;;;;35.66;38.50;96097.97;4964719;28;20054;-68
2022/06/19 11:19:35;;;;;;;14.35;4.82;;;;;;;35.97;36.50;96099.06;4977013;28;19924;-67
2022/06/19 11:22:04;;;;;;;15.30;4.82;;;;;;;35.92;35.91;96093.50;4981740;28;20080;-68
2022/06/19 11:24:33;;;;;;;12.80;5.20;;;;;;;36.17;36.87;96094.72;4975610;28;20045;-68
2022/06/19 11:26:59;;;;;;;17.17;5.22;;;;;;;36.21;37.09;96091.56;4984352;28;20035;-68
2022/06/19 11:29:26;;;;;;;17.77;5.72;;;;;;;35.75;37.45;96091.81;4983620;28;20114;-67
2022/06/19 11:32:04;;;;;;;22.90;5.72;;;;;;;35.70;35.38;96089.09;5002408;23;20418;-67
2022/06/19 11:34:51;;;;;;;17.25;4.90;;;;;;;35.38;35.78;96084.31;4975885;28;20104;-67
2022/06/19 11:37:48;;;;;;;13.48;5.85;;;;;;;35.81;35.74;96079.53;4977940;28;20042;-67
2022/06/19 11:40:18;;;;;;;12.75;4.60;;;;;;;35.46;34.07;96075.88;4977436;28;20570;-67
2022/06/19 11:42:50;;;;;;;15.10;5.25;;;;;;;35.95;35.40;96078.94;4987783;28;20213;-66
2022/06/19 11:45:15;;;;;;;14.82;5.47;;;;;;;36.24;35.54;96069.72;4995122;28;20054;-66
2022/06/19 11:47:48;;;;;;;20.35;4.97;;;;;;;35.87;39.07;96072.41;4974762;28;20046;-65
2022/06/19 11:50:33;;;;;;;15.05;4.78;;;;;;;35.57;38.33;96069.94;4957323;28;20046;-66